Terminal Aerodrome Forecast
Issued by NWS

Home | Current Version | Previous Version | Text Only | Print | Product List | Glossary Off
Versions: 1 2 3 4 5 6 7 8 9 10 11 12 13 14 15

000
FTUS43 KGRB 170525
TAFRHI
TAF
KRHI 170525Z 1706/1806 32008KT P6SM SCT015 OVC028
      TEMPO 1706/1710 3SM -SN BKN015
     FM171400 32010G17KT P6SM BKN015
     FM171900 33008G15KT P6SM BKN028
     FM172300 36005KT P6SM BKN035=

USA.gov is the U.S. government's official web portal to all federal, state and local government web resources and services.